Almond, Alabama
Current Conditions -  °F | °C
As of 11:35 AM on Monday 22 Dec 2014 (Local Time) from KLGC Reporting Station
Haze Haze  
Wind Chill: 52°   Ceiling: 400
Heat Index: 52°   Visibility: 3mi
Dew Point: 52°   Wind: 3mph
Humidity: 97%   Direction: 110°ESE
Pressure: 29.94"   Gusts: NA
Location:  33.1661°N, 85.5111°W
Report Text: KLGC 221735Z AUTO 11003KT 3SM BR OVC004 11/11 A2994 RMK AO2 LTG DSNT SW T01130109
Loading
Personal Weather Stations






























Interactive Weather Map New forecast layout! Learn more

10-Day Weather Forecast

Advertisements
Track Severe Weather on mobile